EmailTwitter


Observations de surface / Québec / CYSC

Régions: Québec | Canada | États-Unis | Europe | France | UK | Ailleurs
Station
Affichage
Infos & localisation pour CYSC | Aide pour décoder les METARs

Observations prises le 2020-02-25 à 10H00 UTC à SHERBROOKE, QB (CYSC)

Etat du ciel: partiellement nuageux.

Température: -2.0 Celsius

Point de rosée: -4.0 Celsius

Humidité relative: 86%

Facteur vent: -5.

Vents: Est à 7 km/h ou 4 noeuds.

Pression au niveau moyen de la mer: 101.37 kilopascals.

Calage altimétrique: 101.29 kilopascals ou 29.91 pouces de mercure.

Visibilité horizontale: 9.00 milles terrestres ou 14.40 kilomètres.

Hauteur du plafond: 4572 mètres ( 15000 pieds ).

Observation METAR:

CYSC 251000Z AUTO 10004KT 9SM BKN150 M02/M04 A2991 RMK SLP137=